createdAt,value
2022-11-21T00:01:24.779Z,86.95
2022-11-21T00:03:51.919Z,86.93
2022-11-21T00:06:19.868Z,86.78
2022-11-21T00:08:47.643Z,87.23
2022-11-21T00:11:16.026Z,87.22
2022-11-21T00:13:44.023Z,87.48
2022-11-21T00:16:16.081Z,87.24
2022-11-21T00:18:44.440Z,86.54
2022-11-21T00:21:17.714Z,87.04
2022-11-21T00:23:45.689Z,87.16
2022-11-21T00:26:14.263Z,87.08
2022-11-21T00:28:41.813Z,87.17
2022-11-21T00:31:10.358Z,86.55
2022-11-21T00:33:40.469Z,86.91
2022-11-21T00:36:10.517Z,87.06
2022-11-21T00:38:38.169Z,86.52
2022-11-21T00:41:06.128Z,86.50
2022-11-21T00:43:33.340Z,86.67
2022-11-21T00:46:03.046Z,86.60
2022-11-21T00:48:31.809Z,86.49
2022-11-21T00:51:00.861Z,86.49
2022-11-21T00:53:28.550Z,86.49
2022-11-21T00:55:55.829Z,86.86
2022-11-21T00:58:22.730Z,86.21
2022-11-21T01:00:52.138Z,86.42
2022-11-21T01:03:19.495Z,86.57
2022-11-21T01:05:46.553Z,86.43
2022-11-21T01:08:13.489Z,85.74
2022-11-21T01:10:40.403Z,86.22
2022-11-21T01:13:07.437Z,86.05
2022-11-21T01:15:34.607Z,86.03
2022-11-21T01:18:01.607Z,86.34
2022-11-21T01:20:28.675Z,86.50
2022-11-21T01:22:55.572Z,86.20
2022-11-21T01:25:22.511Z,86.22
2022-11-21T01:27:49.427Z,86.08
2022-11-21T01:30:16.444Z,85.88
2022-11-21T01:32:43.436Z,86.60
2022-11-21T01:35:10.422Z,86.08
2022-11-21T01:37:37.368Z,86.50
2022-11-21T01:40:04.935Z,86.02
2022-11-21T01:42:47.105Z,85.66
2022-11-21T01:45:51.604Z,85.61
2022-11-21T01:48:19.490Z,85.75
2022-11-21T01:50:46.663Z,86.46
2022-11-21T01:53:13.703Z,86.69
2022-11-21T01:55:40.662Z,87.43
2022-11-21T01:58:07.744Z,88.02
2022-11-21T02:00:40.141Z,87.48
2022-11-21T02:03:12.919Z,86.88
2022-11-21T02:05:41.662Z,86.28
2022-11-21T02:08:42.097Z,86.38
2022-11-21T02:11:44.464Z,87.87
2022-11-21T02:14:29.609Z,90.35
2022-11-21T02:17:22.576Z,89.45
2022-11-21T02:20:16.552Z,88.64
2022-11-21T02:23:09.904Z,88.43
2022-11-21T02:26:02.542Z,88.93
2022-11-21T02:28:29.851Z,88.36
2022-11-21T02:30:56.770Z,88.16
2022-11-21T02:33:23.688Z,89.36
2022-11-21T02:36:01.388Z,87.92
2022-11-21T02:38:32.908Z,89.92
2022-11-21T02:41:27.630Z,90.72
2022-11-21T02:44:09.616Z,91.63
2022-11-21T02:46:48.352Z,90.56
2022-11-21T02:49:20.090Z,89.07
2022-11-21T02:51:47.037Z,89.31
2022-11-21T02:54:13.992Z,90.31
2022-11-21T02:56:40.971Z,88.76
2022-11-21T02:59:07.945Z,89.47
2022-11-21T03:01:34.882Z,89.13
2022-11-21T03:04:01.925Z,89.40
2022-11-21T03:06:28.822Z,89.25
2022-11-21T03:08:55.732Z,90.54
2022-11-21T03:11:22.640Z,89.66
2022-11-21T03:13:49.582Z,88.86
2022-11-21T03:16:16.475Z,88.47
2022-11-21T03:18:43.401Z,88.73
2022-11-21T03:21:10.280Z,87.61
2022-11-21T03:23:37.295Z,89.17
2022-11-21T03:26:04.208Z,87.90
2022-11-21T03:28:31.152Z,88.52
2022-11-21T03:30:58.101Z,88.35
2022-11-21T03:33:25.090Z,89.04
2022-11-21T03:35:51.973Z,88.35
2022-11-21T03:38:19.287Z,90.15
2022-11-21T03:40:46.303Z,89.84
2022-11-21T03:43:13.229Z,89.08
2022-11-21T03:45:40.172Z,90.19
2022-11-21T03:48:07.139Z,89.69
2022-11-21T03:50:35.166Z,90.43
2022-11-21T03:53:02.131Z,90.41
2022-11-21T03:55:29.030Z,90.43
2022-11-21T03:57:56.075Z,89.25
2022-11-21T04:00:23.123Z,90.25
2022-11-21T04:02:50.035Z,89.86
2022-11-21T04:05:17.043Z,89.92
2022-11-21T04:07:43.963Z,89.62
2022-11-21T04:10:10.974Z,89.91
2022-11-21T04:12:38.073Z,91.55
2022-11-21T04:15:10.689Z,90.92
2022-11-21T04:17:42.307Z,91.58
2022-11-21T04:20:10.195Z,90.83
2022-11-21T04:22:37.142Z,89.97
2022-11-21T04:25:04.252Z,89.56
2022-11-21T04:27:31.157Z,90.40
2022-11-21T04:29:58.053Z,90.12
2022-11-21T04:32:25.007Z,90.75
2022-11-21T04:34:52.013Z,90.89
2022-11-21T04:37:19.006Z,90.58
2022-11-21T04:39:45.961Z,89.61
2022-11-21T04:42:12.983Z,89.20
2022-11-21T04:44:39.933Z,88.75
2022-11-21T04:47:07.065Z,88.87
2022-11-21T04:49:34.000Z,89.77
2022-11-21T04:52:01.014Z,88.87
2022-11-21T04:54:28.243Z,90.19
2022-11-21T04:56:55.465Z,89.90
2022-11-21T04:59:22.742Z,89.89
2022-11-21T05:01:49.929Z,89.71
2022-11-21T05:04:16.970Z,90.33
2022-11-21T05:06:43.971Z,89.61
2022-11-21T05:09:11.154Z,91.14
2022-11-21T05:11:56.453Z,90.76
2022-11-21T05:14:26.940Z,91.98
2022-11-21T05:16:54.177Z,93.16
2022-11-21T05:19:21.065Z,93.67
2022-11-21T05:21:48.043Z,93.70
2022-11-21T05:24:14.992Z,92.66
2022-11-21T05:26:42.206Z,94.02
2022-11-21T05:29:09.232Z,92.84
2022-11-21T05:31:36.176Z,92.82
2022-11-21T05:34:03.223Z,92.60
2022-11-21T05:36:30.134Z,94.03
2022-11-21T05:38:57.212Z,92.34
2022-11-21T05:41:24.183Z,92.43
2022-11-21T05:43:51.170Z,92.41
2022-11-21T05:46:20.318Z,91.81
2022-11-21T05:48:48.579Z,92.36
2022-11-21T05:51:17.692Z,93.10
2022-11-21T05:53:45.026Z,93.04
2022-11-21T05:56:15.350Z,92.23
2022-11-21T05:58:43.016Z,91.83
2022-11-21T06:01:12.010Z,93.00
2022-11-21T06:03:41.264Z,92.13
2022-11-21T06:06:12.114Z,91.41
2022-11-21T06:08:44.323Z,91.98
2022-11-21T06:11:16.635Z,91.81
2022-11-21T06:13:44.267Z,91.90
2022-11-21T06:16:14.250Z,91.66
2022-11-21T06:18:43.322Z,91.71
2022-11-21T06:21:14.823Z,90.53
2022-11-21T06:23:43.483Z,89.92
2022-11-21T06:26:15.451Z,89.82
2022-11-21T06:28:43.949Z,90.16
2022-11-21T06:31:11.920Z,88.72
2022-11-21T06:33:41.194Z,88.50
2022-11-21T06:36:26.776Z,88.71
2022-11-21T06:38:55.430Z,89.46
2022-11-21T06:41:24.711Z,88.36
2022-11-21T06:43:51.941Z,88.13
2022-11-21T06:46:19.208Z,88.92
2022-11-21T06:48:46.241Z,89.18
2022-11-21T06:51:17.803Z,88.91
2022-11-21T06:53:45.119Z,88.83
2022-11-21T06:56:12.009Z,90.27
2022-11-21T06:58:38.887Z,89.65
2022-11-21T07:01:07.644Z,89.85
2022-11-21T07:03:35.681Z,89.36
2022-11-21T07:06:03.224Z,89.71
2022-11-21T07:08:31.240Z,89.92
2022-11-21T07:11:24.124Z,89.40
2022-11-21T07:13:50.192Z,89.25
2022-11-21T07:16:17.087Z,90.47
2022-11-21T07:18:45.721Z,90.27
2022-11-21T07:21:12.669Z,90.33
2022-11-21T07:23:39.924Z,90.15
2022-11-21T07:26:08.560Z,90.17
2022-11-21T07:28:35.836Z,90.31
2022-11-21T07:31:08.465Z,90.35
2022-11-21T07:33:40.121Z,89.76
2022-11-21T07:36:07.767Z,89.86
2022-11-21T07:38:34.731Z,89.35
2022-11-21T07:41:01.848Z,89.16
2022-11-21T07:43:28.868Z,89.63
2022-11-21T07:45:56.841Z,89.18
2022-11-21T07:48:23.836Z,88.45
2022-11-21T07:50:50.718Z,88.04
2022-11-21T07:53:17.629Z,87.89
2022-11-21T07:55:44.767Z,87.92
2022-11-21T07:58:13.650Z,87.52
2022-11-21T08:00:43.160Z,87.05
2022-11-21T08:03:12.430Z,86.66
2022-11-21T08:05:42.259Z,86.70
2022-11-21T08:08:10.365Z,86.54
2022-11-21T08:10:39.418Z,85.79
2022-11-21T08:13:06.977Z,85.56
2022-11-21T08:15:33.949Z,85.42
2022-11-21T08:18:11.195Z,85.45
2022-11-21T08:20:38.911Z,84.89
2022-11-21T08:23:06.943Z,84.51
2022-11-21T08:25:36.730Z,84.67
2022-11-21T08:28:04.436Z,84.03
2022-11-21T08:30:35.677Z,83.38
2022-11-21T08:33:03.907Z,84.21
2022-11-21T08:35:30.888Z,83.50
2022-11-21T08:37:58.902Z,83.69
2022-11-21T08:40:27.744Z,84.05
2022-11-21T08:42:59.176Z,83.54
2022-11-21T08:45:28.782Z,83.62
2022-11-21T08:47:56.675Z,83.30
2022-11-21T08:50:24.938Z,83.26
2022-11-21T08:52:52.443Z,83.60
2022-11-21T08:55:19.359Z,83.32
2022-11-21T08:57:46.259Z,82.43
2022-11-21T09:00:13.893Z,83.17
2022-11-21T09:02:40.832Z,81.95
2022-11-21T09:05:08.320Z,82.13
2022-11-21T09:07:35.824Z,81.16
2022-11-21T09:10:03.423Z,82.19
2022-11-21T09:12:31.449Z,82.34
2022-11-21T09:15:18.330Z,82.17
2022-11-21T09:18:03.563Z,81.71
2022-11-21T09:20:38.292Z,81.39
2022-11-21T09:23:16.023Z,81.33
2022-11-21T09:25:43.452Z,81.77
2022-11-21T09:28:12.108Z,81.48
2022-11-21T09:30:41.712Z,80.97
2022-11-21T09:33:14.572Z,81.21
2022-11-21T09:35:41.580Z,80.97
2022-11-21T09:38:09.066Z,81.05
2022-11-21T09:40:36.539Z,80.35
2022-11-21T09:43:12.020Z,80.49
2022-11-21T09:46:16.802Z,80.02
2022-11-21T09:49:06.470Z,80.16
2022-11-21T09:51:37.955Z,79.41
2022-11-21T09:54:10.740Z,78.24
2022-11-21T09:56:42.660Z,79.11
2022-11-21T09:59:12.389Z,78.41
2022-11-21T10:01:39.374Z,78.21
2022-11-21T10:04:26.904Z,77.85
2022-11-21T10:06:57.116Z,77.52
2022-11-21T10:09:36.600Z,77.86
2022-11-21T10:12:37.161Z,77.87
2022-11-21T10:15:14.322Z,77.41
2022-11-21T10:18:08.168Z,77.96
2022-11-21T10:20:37.980Z,77.31
2022-11-21T10:23:43.256Z,76.90
2022-11-21T10:26:34.689Z,77.61
2022-11-21T10:29:11.706Z,78.36
2022-11-21T10:31:41.604Z,78.54
2022-11-21T10:34:17.005Z,77.99
2022-11-21T10:36:50.589Z,77.19
2022-11-21T10:39:23.001Z,76.81
2022-11-21T10:42:12.169Z,76.50
2022-11-21T10:44:57.737Z,77.01
2022-11-21T10:47:31.668Z,76.51
2022-11-21T10:50:37.657Z,76.79
2022-11-21T10:53:37.434Z,75.21
2022-11-21T10:56:16.076Z,76.03
2022-11-21T10:58:46.121Z,74.72
2022-11-21T11:01:25.723Z,75.11
2022-11-21T11:04:27.269Z,74.34
2022-11-21T11:06:56.461Z,73.57
2022-11-21T11:09:33.857Z,73.79
2022-11-21T11:12:48.744Z,72.44
2022-11-21T11:15:24.766Z,73.09
2022-11-21T11:17:55.517Z,73.04
2022-11-21T11:20:39.398Z,73.79
2022-11-21T11:23:22.627Z,73.75
2022-11-21T11:25:52.930Z,74.31
2022-11-21T11:28:20.386Z,74.39
2022-11-21T11:30:49.765Z,74.38
2022-11-21T11:33:35.525Z,74.49
2022-11-21T11:36:05.849Z,74.30
2022-11-21T11:38:33.155Z,75.09
2022-11-21T11:41:10.411Z,74.96
2022-11-21T11:44:07.612Z,74.38
2022-11-21T11:47:14.443Z,74.43
2022-11-21T11:50:10.662Z,75.23
2022-11-21T11:52:56.308Z,74.56
2022-11-21T11:55:39.898Z,74.83
2022-11-21T11:58:34.212Z,74.25
2022-11-21T12:01:07.501Z,74.70
2022-11-21T12:03:58.272Z,75.05
2022-11-21T12:06:46.865Z,75.36
2022-11-21T12:09:25.350Z,75.89
2022-11-21T12:12:09.833Z,75.25
2022-11-21T12:15:03.832Z,75.45
2022-11-21T12:18:20.596Z,74.58
2022-11-21T12:21:15.982Z,75.43
2022-11-21T12:23:47.526Z,75.19
2022-11-21T12:26:29.388Z,75.02
2022-11-21T12:29:14.259Z,75.56
2022-11-21T12:31:59.327Z,75.15
2022-11-21T12:34:57.460Z,74.78
2022-11-21T12:37:39.819Z,74.67
2022-11-21T12:40:32.155Z,74.86
2022-11-21T12:43:17.925Z,74.94
2022-11-21T12:45:57.822Z,74.80
2022-11-21T12:49:05.573Z,74.57
2022-11-21T12:51:53.992Z,75.07
2022-11-21T12:54:49.540Z,75.25
2022-11-21T12:57:19.274Z,74.86
2022-11-21T13:00:26.283Z,74.63
2022-11-21T13:03:30.952Z,74.40
2022-11-21T13:06:00.518Z,74.12
2022-11-21T13:08:31.540Z,72.71
2022-11-21T13:11:39.567Z,72.81
2022-11-21T13:14:45.215Z,73.01
2022-11-21T13:17:27.394Z,73.54
2022-11-21T13:20:20.698Z,74.22
2022-11-21T13:22:47.596Z,74.14
2022-11-21T13:25:41.223Z,74.02
2022-11-21T13:28:14.249Z,74.13
2022-11-21T13:30:57.077Z,74.10
2022-11-21T13:33:35.939Z,73.82
2022-11-21T13:36:13.970Z,74.66
2022-11-21T13:38:50.121Z,74.04
2022-11-21T13:41:53.844Z,74.91
2022-11-21T13:44:40.162Z,74.60
2022-11-21T13:47:10.091Z,74.83
2022-11-21T13:50:16.069Z,74.96
2022-11-21T13:52:47.157Z,75.25
2022-11-21T13:55:33.921Z,75.62
2022-11-21T13:58:10.332Z,75.51
2022-11-21T14:01:14.867Z,75.28
2022-11-21T14:03:56.828Z,75.61
2022-11-21T14:06:36.704Z,75.75
2022-11-21T14:09:21.955Z,75.80
2022-11-21T14:11:55.098Z,75.80
2022-11-21T14:14:51.248Z,75.70
2022-11-21T14:17:28.218Z,75.78
2022-11-21T14:19:57.892Z,75.86
2022-11-21T14:22:34.590Z,75.85
2022-11-21T14:25:08.200Z,76.24
2022-11-21T14:27:45.215Z,76.20
2022-11-21T14:30:42.628Z,76.16
2022-11-21T14:33:26.483Z,76.35
2022-11-21T14:36:00.403Z,76.45
2022-11-21T14:38:29.247Z,76.32
2022-11-21T14:41:24.242Z,76.71
2022-11-21T14:44:11.410Z,76.80
2022-11-21T14:46:40.367Z,76.97
2022-11-21T14:49:13.085Z,76.78
2022-11-21T14:51:41.974Z,77.09
2022-11-21T14:54:20.915Z,77.39
2022-11-21T14:56:54.963Z,76.96
2022-11-21T14:59:29.706Z,77.37
2022-11-21T15:02:18.522Z,77.25
2022-11-21T15:04:48.309Z,77.22
2022-11-21T15:07:31.238Z,77.65
2022-11-21T15:10:33.474Z,77.55
2022-11-21T15:12:55.380Z,77.41
2022-11-21T15:15:39.148Z,77.82
2022-11-21T15:18:27.024Z,77.73
2022-11-21T15:21:04.621Z,77.64
2022-11-21T15:23:38.513Z,77.70
2022-11-21T15:26:05.452Z,77.86
2022-11-21T15:28:32.935Z,77.59
2022-11-21T15:31:22.247Z,77.97
2022-11-21T15:37:05.031Z,78.03
2022-11-21T15:39:33.791Z,77.92
2022-11-21T15:42:31.629Z,78.15
2022-11-21T15:45:19.860Z,78.42
2022-11-21T15:47:47.850Z,78.36
2022-11-21T15:50:15.543Z,78.22
2022-11-21T15:52:50.887Z,78.19
2022-11-21T15:55:22.879Z,78.44
2022-11-21T15:57:49.961Z,78.60
2022-11-21T16:00:17.684Z,78.67
2022-11-21T16:02:44.631Z,79.06
2022-11-21T16:05:13.263Z,79.04
2022-11-21T16:07:41.075Z,78.72
2022-11-21T16:10:17.998Z,78.82
2022-11-21T16:12:48.649Z,79.01
2022-11-21T16:15:15.686Z,78.97
2022-11-21T16:17:42.574Z,79.65
2022-11-21T16:20:09.893Z,79.05
2022-11-21T16:22:36.792Z,79.58
2022-11-21T16:25:04.060Z,79.46
2022-11-21T16:27:33.074Z,79.99
2022-11-21T16:29:59.961Z,80.27
2022-11-21T16:32:27.258Z,79.93
2022-11-21T16:34:54.988Z,80.38
2022-11-21T16:37:21.927Z,81.09
2022-11-21T16:39:52.243Z,82.20
2022-11-21T16:42:19.856Z,82.76
2022-11-21T16:44:48.101Z,82.26
2022-11-21T16:47:15.284Z,83.26
2022-11-21T16:49:48.493Z,82.83
2022-11-21T16:52:15.679Z,82.74
2022-11-21T16:54:42.622Z,82.29
2022-11-21T16:57:09.642Z,83.48
2022-11-21T16:59:36.646Z,83.86
2022-11-21T17:02:04.023Z,83.49
2022-11-21T17:04:31.274Z,83.19
2022-11-21T17:06:58.273Z,82.72
2022-11-21T17:09:25.238Z,82.10
2022-11-21T17:11:52.136Z,82.69
2022-11-21T17:14:19.241Z,82.19
2022-11-21T17:16:49.061Z,82.96
2022-11-21T17:19:16.576Z,83.11
2022-11-21T17:21:43.598Z,82.61
2022-11-21T17:24:13.310Z,82.90
2022-11-21T17:26:40.303Z,83.20
2022-11-21T17:29:07.635Z,83.47
2022-11-21T17:31:34.728Z,83.26
2022-11-21T17:34:02.106Z,83.10
2022-11-21T17:36:30.842Z,82.82
2022-11-21T17:38:58.121Z,82.97
2022-11-21T17:41:25.575Z,83.09
2022-11-21T17:43:56.995Z,82.90
2022-11-21T17:46:25.799Z,82.32
2022-11-21T17:48:57.259Z,83.07
2022-11-21T17:51:32.493Z,82.50
2022-11-21T17:54:01.017Z,83.03
2022-11-21T17:56:34.240Z,83.12
2022-11-21T17:59:01.639Z,82.69
2022-11-21T18:01:29.402Z,82.92
2022-11-21T18:04:02.598Z,83.29
2022-11-21T18:06:34.334Z,82.86
2022-11-21T18:09:01.272Z,83.31
2022-11-21T18:11:34.576Z,82.87
2022-11-21T18:14:07.499Z,83.26
2022-11-21T18:16:34.831Z,83.36
2022-11-21T18:19:02.622Z,83.44
2022-11-21T18:21:31.618Z,83.45
2022-11-21T18:24:00.484Z,83.71
2022-11-21T18:26:30.051Z,83.39
2022-11-21T18:29:20.665Z,83.37
2022-11-21T18:31:46.278Z,82.77
2022-11-21T18:34:13.396Z,83.25
2022-11-21T18:36:40.322Z,83.55
2022-11-21T18:39:14.259Z,83.09
2022-11-21T18:41:42.808Z,83.68
2022-11-21T18:44:10.428Z,83.88
2022-11-21T18:46:38.898Z,83.88
2022-11-21T18:49:07.766Z,84.20
2022-11-21T18:51:36.301Z,84.24
2022-11-21T18:54:08.580Z,83.91
2022-11-21T18:56:37.599Z,83.46
2022-11-21T18:59:06.695Z,83.32
2022-11-21T19:01:36.105Z,84.16
2022-11-21T19:04:03.685Z,83.76
2022-11-21T19:06:30.622Z,84.41
2022-11-21T19:08:58.675Z,84.08
2022-11-21T19:11:28.160Z,84.82
2022-11-21T19:13:57.120Z,85.80
2022-11-21T19:16:26.508Z,86.08
2022-11-21T19:19:33.645Z,85.95
2022-11-21T19:21:44.152Z,85.56
2022-11-21T19:24:15.740Z,85.63
2022-11-21T19:26:43.222Z,84.71
2022-11-21T19:29:11.092Z,84.89
2022-11-21T19:31:44.565Z,84.37
2022-11-21T19:34:13.799Z,83.94
2022-11-21T19:36:40.943Z,85.08
2022-11-21T19:39:07.990Z,84.50
2022-11-21T19:41:35.015Z,84.52
2022-11-21T19:44:02.337Z,84.78
2022-11-21T19:46:34.980Z,85.49
2022-11-21T19:49:06.024Z,85.81
2022-11-21T19:51:38.294Z,84.80
2022-11-21T19:54:06.563Z,84.56
2022-11-21T19:56:34.031Z,84.03
2022-11-21T19:59:01.139Z,84.11
2022-11-21T20:01:30.442Z,84.40
2022-11-21T20:04:00.075Z,84.25
2022-11-21T20:06:30.936Z,84.68
2022-11-21T20:09:04.288Z,84.04
2022-11-21T20:11:33.739Z,84.90
2022-11-21T20:14:00.774Z,85.33
2022-11-21T20:16:34.124Z,85.22
2022-11-21T20:19:06.855Z,85.05
2022-11-21T20:21:34.290Z,84.64
2022-11-21T20:24:01.460Z,84.93
2022-11-21T20:26:28.919Z,85.15
2022-11-21T20:28:56.607Z,84.60
2022-11-21T20:31:29.241Z,85.83
2022-11-21T20:34:01.581Z,84.83
2022-11-21T20:36:30.590Z,85.07
2022-11-21T20:39:00.528Z,85.61
2022-11-21T20:41:30.049Z,85.17
2022-11-21T20:46:46.408Z,85.54
2022-11-21T20:49:13.385Z,85.38
2022-11-21T20:54:28.086Z,84.83
2022-11-21T20:56:55.390Z,85.58
2022-11-21T20:59:22.398Z,85.58
2022-11-21T21:01:49.378Z,85.10
2022-11-21T21:04:16.343Z,86.17
2022-11-21T21:06:43.328Z,86.44
2022-11-21T21:09:10.240Z,86.70
2022-11-21T21:11:51.589Z,86.68
2022-11-21T21:14:19.403Z,87.21
2022-11-21T21:16:46.333Z,87.49
2022-11-21T21:19:13.234Z,87.08
2022-11-21T21:21:41.815Z,86.64
2022-11-21T21:24:11.220Z,86.24
2022-11-21T21:26:42.893Z,85.92
2022-11-21T21:29:14.853Z,86.85
2022-11-21T21:31:46.840Z,87.17
2022-11-21T21:34:17.250Z,87.50
2022-11-21T21:36:44.213Z,87.41
2022-11-21T21:39:11.343Z,87.68
2022-11-21T21:41:40.318Z,87.95
2022-11-21T21:44:07.796Z,87.35
2022-11-21T21:46:34.745Z,87.74
2022-11-21T21:49:01.806Z,88.17
2022-11-21T21:51:30.865Z,87.74
2022-11-21T21:53:59.315Z,87.12
2022-11-21T21:56:28.355Z,87.07
2022-11-21T21:58:57.145Z,87.28
2022-11-21T22:01:26.950Z,87.42
2022-11-21T22:03:56.127Z,86.63
2022-11-21T22:06:23.263Z,86.71
2022-11-21T22:08:51.233Z,86.45
2022-11-21T22:11:23.551Z,88.85
2022-11-21T22:13:58.123Z,89.23
2022-11-21T22:16:25.616Z,88.87
2022-11-21T22:18:54.015Z,88.63
2022-11-21T22:21:28.168Z,87.83
2022-11-21T22:24:24.248Z,88.38
2022-11-21T22:26:43.585Z,87.92
2022-11-21T22:29:10.488Z,87.39
2022-11-21T22:31:37.777Z,89.93
2022-11-21T22:34:05.158Z,90.65
2022-11-21T22:36:32.056Z,91.46
2022-11-21T22:38:59.045Z,91.28
2022-11-21T22:41:27.681Z,91.62
2022-11-21T22:43:59.425Z,91.45
2022-11-21T22:46:28.301Z,89.61
2022-11-21T22:48:55.656Z,89.69
2022-11-21T22:51:29.813Z,88.58
2022-11-21T22:53:56.976Z,87.72
2022-11-21T22:56:25.637Z,87.99
2022-11-21T22:58:52.686Z,89.76
2022-11-21T23:01:22.029Z,89.89
2022-11-21T23:03:52.266Z,89.76
2022-11-21T23:06:27.999Z,88.97
2022-11-21T23:08:56.716Z,89.90
2022-11-21T23:11:27.987Z,90.29
2022-11-21T23:13:56.325Z,90.28
2022-11-21T23:16:23.749Z,89.55
2022-11-21T23:18:53.648Z,89.42
2022-11-21T23:21:21.585Z,88.99
2022-11-21T23:23:48.761Z,88.73
2022-11-21T23:26:15.976Z,88.64
2022-11-21T23:28:42.983Z,88.98
2022-11-21T23:31:10.675Z,89.33
2022-11-21T23:33:37.741Z,89.40
2022-11-21T23:36:04.877Z,89.50
2022-11-21T23:38:32.310Z,90.82
2022-11-21T23:40:59.252Z,91.12
2022-11-21T23:43:26.180Z,91.99
2022-11-21T23:45:54.241Z,92.08
2022-11-21T23:48:22.243Z,92.44
2022-11-21T23:50:51.142Z,92.54
2022-11-21T23:53:19.732Z,92.74
2022-11-21T23:55:46.814Z,92.77
2022-11-21T23:58:14.232Z,92.21
